Warrensburg, Illinois
Current Conditions -  °F | °C
As of 5:54 AM on Monday 22 Dec 2014 (Local Time) from KDEC Reporting Station
Haze Haze  
Wind Chill: 25°   Ceiling: 5000
Heat Index: 34°   Visibility: 6mi
Dew Point: 30°   Wind: 12mph
Humidity: 85%   Direction: 120°ESE
Pressure: 29.87"   Gusts: NA
Location:  39.93°N, 89.06°W
Report Text: KDEC 221154Z 12010KT 6SM BR OVC050 01/M01 A2987 RMK AO2 SLP121 T00111011 10017 20011 56025
Loading
Personal Weather Stations






























Interactive Weather Map New forecast layout! Learn more

10-Day Weather Forecast

Advertisements
Track Severe Weather on mobile